Time;durP1;ratioP1;P1;durP2;ratioP2;P2;SDS_P1;SDS_P2;PMS_P1;PMS_P2;Temp;Humidity;BMP_temperature;BMP_pressure;BME280_temperature;BME280_humidity;BME280_pressure;Samples;Min_cycle;Max_cycle;Signal;HPM_P1;HPM_P2
2024/01/16 00:00:11;;;;;;;;;;;-0.20;99.90;;;;;;5115048;27;19931;-34
2024/01/16 00:02:37;;;;;;;;;;;-0.20;99.90;;;;;;5116479;27;20096;-33
2024/01/16 00:05:04;;;;;;;;;;;-0.20;99.90;;;;;;5112413;27;19923;-33
2024/01/16 00:07:34;;;;;;;;;;;-0.20;99.90;;;;;;5113974;27;19968;-33
2024/01/16 00:10:01;;;;;;;;;;;-0.20;99.90;;;;;;5131473;27;19984;-32
2024/01/16 00:12:27;;;;;;;;;;;-0.20;99.90;;;;;;5133486;27;19969;-32
2024/01/16 00:14:57;;;;;;;;;;;-0.30;99.90;;;;;;5132301;27;20121;-32
2024/01/16 00:17:24;;;;;;;;;;;-0.10;99.90;;;;;;5114293;27;19923;-32
2024/01/16 00:19:50;;;;;;;;;;;-0.30;99.90;;;;;;5116087;27;19927;-33
2024/01/16 00:22:17;;;;;;;;;;;-0.30;99.90;;;;;;5114861;27;19927;-32
2024/01/16 00:24:45;;;;;;;;;;;-0.30;99.90;;;;;;5114489;27;19928;-32
2024/01/16 00:27:12;;;;;;;;;;;-0.30;99.90;;;;;;5110829;27;19923;-32
2024/01/16 00:29:38;;;;;;;;;;;-0.40;99.90;;;;;;5134195;27;20279;-32
2024/01/16 00:32:05;;;;;;;;;;;-0.30;99.90;;;;;;5114005;27;19984;-32
2024/01/16 00:34:32;;;;;;;;;;;-0.40;99.90;;;;;;5104055;27;19924;-33
2024/01/16 00:36:59;;;;;;;;;;;-0.40;99.90;;;;;;5132761;27;19976;-33
2024/01/16 00:39:25;;;;;;;;;;;-0.40;99.90;;;;;;5131213;27;20389;-33
2024/01/16 00:41:53;;;;;;;;;;;-0.40;99.90;;;;;;5115269;27;19968;-32
2024/01/16 00:44:20;;;;;;;;;;;-0.40;99.90;;;;;;5114860;27;19923;-32
2024/01/16 00:46:46;;;;;;;;;;;-0.40;99.90;;;;;;5114440;27;19923;-32
2024/01/16 00:49:13;;;;;;;;;;;-0.40;99.90;;;;;;5114270;27;19924;-32
2024/01/16 00:51:40;;;;;;;;;;;-0.40;99.90;;;;;;5113719;27;20363;-32
2024/01/16 00:54:07;;;;;;;;;;;-0.40;99.90;;;;;;5115189;27;19953;-32
2024/01/16 00:56:34;;;;;;;;;;;-0.40;99.90;;;;;;5113931;27;19938;-33
2024/01/16 00:59:02;;;;;;;;;;;-0.40;99.90;;;;;;5113064;27;20406;-33
2024/01/16 01:01:29;;;;;;;;;;;-0.40;99.90;;;;;;5115716;28;20345;-35
2024/01/16 01:03:56;;;;;;;;;;;-0.40;99.90;;;;;;5115053;28;19967;-32
2024/01/16 01:06:22;;;;;;;;;;;-0.40;99.90;;;;;;5131881;27;19923;-32
2024/01/16 01:08:49;;;;;;;;;;;-0.40;99.90;;;;;;5114667;28;19924;-32
2024/01/16 01:11:15;;;;;;;;;;;-0.40;99.90;;;;;;5132753;28;20283;-33
2024/01/16 01:13:42;;;;;;;;;;;-0.40;99.90;;;;;;5133202;28;19976;-32
2024/01/16 01:16:10;;;;;;;;;;;-0.40;99.90;;;;;;5131574;28;19927;-32
2024/01/16 01:18:37;;;;;;;;;;;-0.40;99.90;;;;;;5113916;28;19976;-32
2024/01/16 01:21:03;;;;;;;;;;;-0.40;99.90;;;;;;5115032;28;19923;-34
2024/01/16 01:23:30;;;;;;;;;;;-0.40;99.90;;;;;;5115128;28;19974;-34
2024/01/16 01:25:57;;;;;;;;;;;-0.40;99.90;;;;;;5113557;28;20374;-32
2024/01/16 01:28:23;;;;;;;;;;;-0.40;99.90;;;;;;5113154;28;19927;-33
2024/01/16 01:30:50;;;;;;;;;;;-0.40;99.90;;;;;;5113181;28;19976;-32
2024/01/16 01:33:18;;;;;;;;;;;-0.50;99.90;;;;;;5132099;28;19924;-31
2024/01/16 01:35:45;;;;;;;;;;;-0.50;99.90;;;;;;5131745;28;19924;-33
2024/01/16 01:38:11;;;;;;;;;;;-0.50;99.90;;;;;;5112368;28;20455;-32
2024/01/16 01:40:38;;;;;;;;;;;-0.50;99.90;;;;;;5108864;27;19923;-31
2024/01/16 01:43:18;;;;;;;;;;;-0.50;99.90;;;;;;5117588;27;19927;-33
2024/01/16 01:45:44;;;;;;;;;;;-0.50;99.90;;;;;;5116935;27;20021;-32
2024/01/16 01:48:11;;;;;;;;;;;-0.50;99.90;;;;;;5117825;27;19924;-32
2024/01/16 01:50:39;;;;;;;;;;;-0.40;99.90;;;;;;5117620;27;20004;-33
2024/01/16 01:53:06;;;;;;;;;;;-0.50;99.90;;;;;;5117231;27;19927;-33
2024/01/16 01:55:32;;;;;;;;;;;-0.40;99.90;;;;;;5152483;27;19931;-34
2024/01/16 01:58:00;;;;;;;;;;;-0.40;99.90;;;;;;5116224;27;20375;-35
2024/01/16 02:00:27;;;;;;;;;;;-0.40;99.90;;;;;;5116203;27;20294;-34
2024/01/16 02:02:54;;;;;;;;;;;-0.40;99.90;;;;;;5117286;27;19967;-33
2024/01/16 02:05:20;;;;;;;;;;;-0.40;99.90;;;;;;5118624;27;19927;-34
2024/01/16 02:07:48;;;;;;;;;;;-0.30;99.90;;;;;;5116225;27;19923;-33
2024/01/16 02:10:15;;;;;;;;;;;-0.40;99.90;;;;;;5097505;28;19927;-33
2024/01/16 02:12:42;;;;;;;;;;;-0.30;99.90;;;;;;5097959;28;19930;-33
2024/01/16 02:15:09;;;;;;;;;;;-0.30;99.90;;;;;;5111535;27;19924;-34
2024/01/16 02:17:35;;;;;;;;;;;-0.40;99.90;;;;;;5116490;27;19923;-32
2024/01/16 02:20:02;;;;;;;;;;;-0.40;99.90;;;;;;5118250;27;19923;-31
2024/01/16 02:22:29;;;;;;;;;;;-0.40;99.90;;;;;;5118057;27;19923;-32
2024/01/16 02:24:57;;;;;;;;;;;-0.40;99.90;;;;;;5135127;27;19976;-32
2024/01/16 02:27:23;;;;;;;;;;;-0.40;99.90;;;;;;5110721;27;19932;-32
2024/01/16 02:29:50;;;;;;;;;;;-0.40;99.90;;;;;;5107621;27;20404;-33
2024/01/16 02:32:17;;;;;;;;;;;-0.40;99.90;;;;;;5131309;27;20416;-32
2024/01/16 02:34:43;;;;;;;;;;;-0.40;99.90;;;;;;5116135;27;19932;-33
2024/01/16 02:37:09;;;;;;;;;;;-0.20;99.90;;;;;;5135957;27;19935;-32
2024/01/16 02:39:36;;;;;;;;;;;-0.40;99.90;;;;;;5115693;27;19924;-32
2024/01/16 02:42:04;;;;;;;;;;;-0.30;99.90;;;;;;5134911;27;19923;-32
2024/01/16 02:44:30;;;;;;;;;;;-0.40;99.90;;;;;;5133985;27;19923;-32
2024/01/16 02:46:57;;;;;;;;;;;-0.30;99.90;;;;;;5135808;27;20022;-34
2024/01/16 02:49:25;;;;;;;;;;;-0.40;99.90;;;;;;5116841;27;19968;-32
2024/01/16 02:51:52;;;;;;;;;;;-0.40;99.90;;;;;;5110604;27;20022;-34
2024/01/16 02:54:19;;;;;;;;;;;-0.20;99.90;;;;;;5125420;27;20006;-31
2024/01/16 02:56:45;;;;;;;;;;;-0.40;99.90;;;;;;5116381;27;20015;-35
2024/01/16 02:59:13;;;;;;;;;;;-0.40;99.90;;;;;;5115057;27;19923;-32
2024/01/16 03:01:40;;;;;;;;;;;-0.40;99.90;;;;;;5117444;27;19932;-33
2024/01/16 03:04:07;;;;;;;;;;;-0.40;99.90;;;;;;5114848;27;19924;-33
2024/01/16 03:06:34;;;;;;;;;;;-0.50;99.90;;;;;;5134717;27;20267;-33
2024/01/16 03:09:01;;;;;;;;;;;-0.60;99.90;;;;;;5115807;27;19923;-32
2024/01/16 03:11:27;;;;;;;;;;;-0.50;99.90;;;;;;5116140;27;19927;-33
2024/01/16 03:13:54;;;;;;;;;;;-0.60;99.90;;;;;;5113418;27;20291;-34
2024/01/16 03:16:22;;;;;;;;;;;-0.60;99.90;;;;;;5116574;27;19923;-34
2024/01/16 03:18:48;;;;;;;;;;;-0.60;99.90;;;;;;5134940;27;19923;-33
2024/01/16 03:21:15;;;;;;;;;;;-0.60;99.90;;;;;;5117078;27;20404;-32
2024/01/16 03:23:42;;;;;;;;;;;-0.60;99.90;;;;;;5116478;27;20344;-31
2024/01/16 03:26:12;;;;;;;;;;;-0.60;99.90;;;;;;5116326;27;19969;-32
2024/01/16 03:28:39;;;;;;;;;;;-0.60;99.90;;;;;;5134499;27;19971;-33
2024/01/16 03:31:06;;;;;;;;;;;-0.60;99.90;;;;;;5103571;27;19924;-32
2024/01/16 03:33:35;;;;;;;;;;;-0.70;99.90;;;;;;5115674;27;19924;-32
2024/01/16 03:36:02;;;;;;;;;;;-0.70;99.90;;;;;;5114210;27;19946;-32
2024/01/16 03:38:29;;;;;;;;;;;-0.70;99.90;;;;;;5116241;27;19923;-31
2024/01/16 03:40:55;;;;;;;;;;;-0.60;99.90;;;;;;5106576;27;19924;-33
2024/01/16 03:43:22;;;;;;;;;;;-0.70;99.90;;;;;;5114781;27;19923;-32
2024/01/16 03:45:49;;;;;;;;;;;-0.70;99.90;;;;;;5115335;27;20439;-32
2024/01/16 03:48:15;;;;;;;;;;;-0.70;99.90;;;;;;5116024;27;19924;-33
2024/01/16 03:50:45;;;;;;;;;;;-0.60;99.90;;;;;;5114947;27;19963;-32
2024/01/16 03:53:11;;;;;;;;;;;-0.60;99.90;;;;;;5115174;27;19958;-33
2024/01/16 03:55:38;;;;;;;;;;;-0.60;99.90;;;;;;5115646;27;20426;-32
2024/01/16 03:58:05;;;;;;;;;;;-0.60;99.90;;;;;;5107129;27;19968;-33
2024/01/16 04:00:31;;;;;;;;;;;-0.60;99.90;;;;;;5112449;27;19923;-32
2024/01/16 04:02:58;;;;;;;;;;;-0.60;99.90;;;;;;5132688;27;20207;-33
2024/01/16 04:05:24;;;;;;;;;;;-0.60;99.90;;;;;;5113017;27;19930;-33
2024/01/16 04:07:53;;;;;;;;;;;-0.60;99.90;;;;;;5095553;28;19975;-32
2024/01/16 04:10:19;;;;;;;;;;;-0.60;99.90;;;;;;5095913;28;19930;-33
2024/01/16 04:12:46;;;;;;;;;;;-0.50;99.90;;;;;;5113745;28;19924;-33
2024/01/16 04:15:13;;;;;;;;;;;-0.60;99.90;;;;;;5111537;27;19923;-32
2024/01/16 04:17:39;;;;;;;;;;;-0.50;99.90;;;;;;5114682;27;19923;-35
2024/01/16 04:20:07;;;;;;;;;;;-0.50;99.90;;;;;;5116299;27;19924;-33
2024/01/16 04:22:34;;;;;;;;;;;-0.50;99.90;;;;;;5115519;27;19927;-33
2024/01/16 04:25:04;;;;;;;;;;;-0.50;99.90;;;;;;5115280;27;19927;-33
2024/01/16 04:27:31;;;;;;;;;;;-0.40;99.90;;;;;;5115358;27;19963;-34
2024/01/16 04:29:57;;;;;;;;;;;-0.50;99.90;;;;;;5131730;27;19969;-33
2024/01/16 04:32:24;;;;;;;;;;;-0.40;99.90;;;;;;5112618;27;19962;-33
2024/01/16 04:34:51;;;;;;;;;;;-0.40;99.90;;;;;;5114735;27;20299;-33
2024/01/16 04:37:18;;;;;;;;;;;-0.40;99.90;;;;;;5115643;27;19932;-33
2024/01/16 04:39:44;;;;;;;;;;;-0.40;99.90;;;;;;5115521;27;19924;-34
2024/01/16 04:42:12;;;;;;;;;;;-0.40;99.90;;;;;;5146398;27;20300;-35
2024/01/16 04:44:39;;;;;;;;;;;-0.20;99.90;;;;;;5111995;27;20268;-34
2024/01/16 04:47:06;;;;;;;;;;;-0.40;99.90;;;;;;5114503;27;19969;-34
2024/01/16 04:49:32;;;;;;;;;;;-0.30;99.90;;;;;;5132774;27;19946;-34
2024/01/16 04:51:59;;;;;;;;;;;-0.40;99.90;;;;;;5106595;28;19924;-33
2024/01/16 04:54:26;;;;;;;;;;;-0.30;99.90;;;;;;5100528;27;19923;-33
2024/01/16 04:56:53;;;;;;;;;;;-0.30;99.90;;;;;;5115555;27;19923;-34
2024/01/16 04:59:21;;;;;;;;;;;-0.40;99.90;;;;;;5112432;27;19923;-33
2024/01/16 05:01:47;;;;;;;;;;;-0.40;99.90;;;;;;5131864;27;19928;-33
2024/01/16 05:04:14;;;;;;;;;;;-0.40;99.90;;;;;;5113923;28;20359;-33
2024/01/16 05:06:41;;;;;;;;;;;-0.40;99.90;;;;;;5115241;28;19973;-34
2024/01/16 05:09:07;;;;;;;;;;;-0.40;99.90;;;;;;5115176;28;19924;-33
2024/01/16 05:11:34;;;;;;;;;;;-0.40;99.90;;;;;;5114690;28;19976;-33
2024/01/16 05:14:01;;;;;;;;;;;-0.40;99.90;;;;;;5111609;28;20361;-34
2024/01/16 05:16:29;;;;;;;;;;;-0.40;99.90;;;;;;5117987;27;19927;-35
2024/01/16 05:18:55;;;;;;;;;;;-0.40;99.90;;;;;;5115644;28;19924;-34
2024/01/16 05:21:22;;;;;;;;;;;-0.40;99.90;;;;;;5098775;28;19928;-33
2024/01/16 05:23:48;;;;;;;;;;;-0.40;99.90;;;;;;5130874;27;19929;-33
2024/01/16 05:26:15;;;;;;;;;;;-0.40;99.90;;;;;;5118147;27;19974;-33
2024/01/16 05:28:42;;;;;;;;;;;-0.40;99.90;;;;;;5118136;27;19982;-33
2024/01/16 05:31:08;;;;;;;;;;;-0.40;99.90;;;;;;5137439;27;20337;-33
2024/01/16 05:33:36;;;;;;;;;;;-0.40;99.90;;;;;;5136595;27;19967;-33
2024/01/16 05:36:03;;;;;;;;;;;-0.30;99.90;;;;;;5135820;27;19923;-33
2024/01/16 05:38:30;;;;;;;;;;;-0.30;99.90;;;;;;5116075;27;19963;-33
2024/01/16 05:40:56;;;;;;;;;;;-0.30;99.90;;;;;;5134107;27;19923;-34
2024/01/16 05:43:23;;;;;;;;;;;-0.30;99.90;;;;;;5116151;27;19935;-34
2024/01/16 05:45:50;;;;;;;;;;;-0.30;99.90;;;;;;5116944;27;19923;-33
2024/01/16 05:48:16;;;;;;;;;;;-0.10;99.90;;;;;;5117078;27;19923;-33
2024/01/16 05:50:44;;;;;;;;;;;-0.30;99.90;;;;;;5117055;27;20395;-33
2024/01/16 05:53:11;;;;;;;;;;;-0.30;99.90;;;;;;5117880;27;20382;-33
2024/01/16 05:55:38;;;;;;;;;;;-0.20;99.90;;;;;;5136356;27;20016;-33
2024/01/16 05:58:04;;;;;;;;;;;-0.30;99.90;;;;;;5135570;27;19924;-32
2024/01/16 06:00:33;;;;;;;;;;;-0.20;99.90;;;;;;5117299;27;19923;-33
2024/01/16 06:02:59;;;;;;;;;;;-0.20;99.90;;;;;;5111968;27;19924;-33
2024/01/16 06:05:26;;;;;;;;;;;-0.20;99.90;;;;;;5116726;27;20359;-31
2024/01/16 06:07:54;;;;;;;;;;;-0.20;99.90;;;;;;5115581;27;19976;-33
2024/01/16 06:10:21;;;;;;;;;;;-0.20;99.90;;;;;;5111191;27;19952;-32
2024/01/16 06:12:47;;;;;;;;;;;-0.20;99.90;;;;;;5133235;27;20422;-34
2024/01/16 06:15:14;;;;;;;;;;;-0.10;99.90;;;;;;5114703;27;19928;-32
2024/01/16 06:17:41;;;;;;;;;;;-0.20;99.90;;;;;;5111771;27;20019;-33
2024/01/16 06:20:08;;;;;;;;;;;-0.10;99.90;;;;;;5112367;27;20168;-33
2024/01/16 06:22:34;;;;;;;;;;;-0.20;99.90;;;;;;5113104;27;19968;-32
2024/01/16 06:25:02;;;;;;;;;;;-0.10;99.90;;;;;;5116291;27;20023;-34
2024/01/16 06:27:29;;;;;;;;;;;-0.10;99.90;;;;;;5132097;27;19940;-33
2024/01/16 06:29:56;;;;;;;;;;;-0.20;99.90;;;;;;5115530;27;19923;-32
2024/01/16 06:32:22;;;;;;;;;;;-0.10;99.90;;;;;;5116550;27;19923;-32
2024/01/16 06:34:49;;;;;;;;;;;-0.20;99.90;;;;;;5134190;27;19928;-33
2024/01/16 06:37:16;;;;;;;;;;;-0.10;99.90;;;;;;5112828;27;20315;-33
2024/01/16 06:39:42;;;;;;;;;;;-0.20;99.90;;;;;;5128243;27;19939;-32
2024/01/16 06:42:10;;;;;;;;;;;-0.20;99.90;;;;;;5109538;27;19972;-33
2024/01/16 06:44:37;;;;;;;;;;;-0.20;99.90;;;;;;5131380;27;19923;-32
2024/01/16 06:47:04;;;;;;;;;;;-0.20;99.90;;;;;;5104343;27;19971;-32
2024/01/16 06:49:30;;;;;;;;;;;-0.20;99.90;;;;;;5116235;27;20309;-32
2024/01/16 06:51:57;;;;;;;;;;;-0.20;99.90;;;;;;5108627;27;19928;-31
2024/01/16 06:54:24;;;;;;;;;;;-0.10;99.90;;;;;;5108617;27;19928;-32
2024/01/16 06:56:50;;;;;;;;;;;-0.10;99.90;;;;;;5122529;27;19928;-33
2024/01/16 06:59:21;;;;;;;;;;;-0.20;99.90;;;;;;5112360;27;19935;-31
2024/01/16 07:01:48;;;;;;;;;;;-0.20;99.90;;;;;;5123176;27;19977;-33
2024/01/16 07:04:14;;;;;;;;;;;-0.20;99.90;;;;;;5111007;27;19984;-32
2024/01/16 07:06:41;;;;;;;;;;;-0.10;99.90;;;;;;5133108;27;19927;-32
2024/01/16 07:09:10;;;;;;;;;;;-0.10;99.90;;;;;;5133643;27;19927;-32
2024/01/16 07:11:37;;;;;;;;;;;-0.20;99.90;;;;;;5113771;27;19976;-32
2024/01/16 07:14:04;;;;;;;;;;;-0.20;99.90;;;;;;5114206;27;19924;-32
2024/01/16 07:16:31;;;;;;;;;;;-0.10;99.90;;;;;;5112979;27;20024;-32
2024/01/16 07:18:59;;;;;;;;;;;-0.20;99.90;;;;;;5113504;27;19969;-33
2024/01/16 07:21:25;;;;;;;;;;;-0.10;99.90;;;;;;5113431;27;19984;-33
2024/01/16 07:23:52;;;;;;;;;;;-0.10;99.90;;;;;;5114728;27;19923;-32
2024/01/16 07:26:18;;;;;;;;;;;-0.10;99.90;;;;;;5130185;27;20001;-33
2024/01/16 07:28:45;;;;;;;;;;;0.00;99.90;;;;;;5131272;27;19935;-32
2024/01/16 07:31:12;;;;;;;;;;;0.00;99.90;;;;;;5106190;27;19974;-31
2024/01/16 07:33:40;;;;;;;;;;;0.00;99.90;;;;;;5130689;27;20318;-31
2024/01/16 07:36:07;;;;;;;;;;;0.00;99.90;;;;;;5128091;27;20383;-32
2024/01/16 07:38:34;;;;;;;;;;;0.00;99.90;;;;;;5114552;27;19927;-32
2024/01/16 07:41:00;;;;;;;;;;;0.10;99.90;;;;;;5133386;27;19927;-33
2024/01/16 07:43:27;;;;;;;;;;;0.00;99.90;;;;;;5113183;27;20348;-32
2024/01/16 07:45:54;;;;;;;;;;;0.10;99.90;;;;;;5111809;27;19931;-31
2024/01/16 07:48:20;;;;;;;;;;;0.10;99.90;;;;;;5110615;27;20391;-33
2024/01/16 07:50:48;;;;;;;;;;;0.00;99.90;;;;;;5094975;28;19928;-32
2024/01/16 07:53:15;;;;;;;;;;;0.00;99.90;;;;;;5119704;27;19923;-31
2024/01/16 07:55:42;;;;;;;;;;;0.00;99.90;;;;;;5132884;27;20360;-32
2024/01/16 07:58:08;;;;;;;;;;;0.00;99.90;;;;;;5113876;27;19923;-34
2024/01/16 08:00:35;;;;;;;;;;;0.00;99.90;;;;;;5113772;27;19924;-33
2024/01/16 08:03:01;;;;;;;;;;;0.00;99.90;;;;;;5114482;27;19980;-32
2024/01/16 08:05:30;;;;;;;;;;;0.10;99.90;;;;;;5130296;27;19923;-32
2024/01/16 08:07:58;;;;;;;;;;;0.10;99.90;;;;;;5131835;27;19934;-33
2024/01/16 08:10:24;;;;;;;;;;;0.00;99.90;;;;;;5113149;27;19935;-32
2024/01/16 08:12:51;;;;;;;;;;;0.10;99.90;;;;;;5129446;27;19924;-31
2024/01/16 08:15:17;;;;;;;;;;;0.10;99.90;;;;;;5112452;27;20379;-34
2024/01/16 08:17:44;;;;;;;;;;;0.00;99.90;;;;;;5113401;27;19972;-33
2024/01/16 08:20:13;;;;;;;;;;;0.10;99.90;;;;;;5130815;27;19981;-33
2024/01/16 08:22:40;;;;;;;;;;;0.10;99.90;;;;;;5113701;27;19934;-32
2024/01/16 08:25:08;;;;;;;;;;;0.10;99.90;;;;;;5113796;27;19972;-32
2024/01/16 08:27:37;;;;;;;;;;;0.10;99.90;;;;;;5099201;28;19934;-33
2024/01/16 08:30:04;;;;;;;;;;;0.20;99.90;;;;;;5128772;27;19923;-32
2024/01/16 08:32:31;;;;;;;;;;;0.20;99.90;;;;;;5113680;27;19931;-33
2024/01/16 08:34:57;;;;;;;;;;;0.20;99.90;;;;;;5112952;27;19968;-33
2024/01/16 08:37:25;;;;;;;;;;;0.20;99.90;;;;;;5100643;27;19923;-35
2024/01/16 08:39:52;;;;;;;;;;;0.30;99.90;;;;;;5107880;28;20000;-34
2024/01/16 08:42:19;;;;;;;;;;;0.30;99.90;;;;;;5106471;27;19923;-32
2024/01/16 08:44:46;;;;;;;;;;;0.40;99.90;;;;;;5111742;27;19924;-32
2024/01/16 08:47:13;;;;;;;;;;;0.40;99.90;;;;;;5111589;27;19923;-34
2024/01/16 08:49:40;;;;;;;;;;;0.40;99.90;;;;;;5111528;27;19984;-33
2024/01/16 08:52:07;;;;;;;;;;;0.50;99.90;;;;;;5112266;27;19931;-33
2024/01/16 08:54:34;;;;;;;;;;;0.50;99.90;;;;;;5113655;28;19930;-32
2024/01/16 08:57:00;;;;;;;;;;;0.80;99.90;;;;;;5112007;27;19927;-33
2024/01/16 08:59:28;;;;;;;;;;;0.70;99.90;;;;;;5111710;27;20340;-33
2024/01/16 09:01:55;;;;;;;;;;;0.60;99.90;;;;;;5111910;28;20394;-33
2024/01/16 09:04:22;;;;;;;;;;;0.70;99.90;;;;;;5113226;27;20324;-33
2024/01/16 09:06:49;;;;;;;;;;;0.70;99.90;;;;;;5112093;27;19924;-32
2024/01/16 09:09:16;;;;;;;;;;;0.70;99.90;;;;;;5109394;28;20018;-33
2024/01/16 09:11:42;;;;;;;;;;;0.70;99.90;;;;;;5128819;28;20302;-33
2024/01/16 09:14:09;;;;;;;;;;;0.80;99.90;;;;;;5112200;28;19927;-33
2024/01/16 09:16:38;;;;;;;;;;;0.70;99.90;;;;;;5126016;28;19930;-33
2024/01/16 09:19:05;;;;;;;;;;;0.80;99.90;;;;;;5115826;28;20294;-32
2024/01/16 09:21:32;;;;;;;;;;;0.80;99.90;;;;;;5093641;28;19924;-32
2024/01/16 09:23:58;;;;;;;;;;;0.80;99.90;;;;;;5090968;28;20211;-35
2024/01/16 09:26:25;;;;;;;;;;;0.90;99.90;;;;;;5105849;28;19992;-32
2024/01/16 09:28:51;;;;;;;;;;;0.90;99.90;;;;;;5110758;28;19965;-32
2024/01/16 09:31:18;;;;;;;;;;;0.90;99.90;;;;;;5112228;28;19966;-32
2024/01/16 09:33:46;;;;;;;;;;;1.00;99.90;;;;;;5113206;28;19996;-33
2024/01/16 09:36:13;;;;;;;;;;;1.00;99.90;;;;;;5111876;28;19928;-33
2024/01/16 09:38:39;;;;;;;;;;;1.00;99.90;;;;;;5110916;28;19927;-32
2024/01/16 09:41:06;;;;;;;;;;;1.00;99.90;;;;;;5097389;28;19972;-33
2024/01/16 09:43:33;;;;;;;;;;;1.10;99.90;;;;;;5111987;28;19976;-32
2024/01/16 09:46:00;;;;;;;;;;;1.10;99.90;;;;;;5112434;28;19976;-34
2024/01/16 09:48:28;;;;;;;;;;;1.10;99.90;;;;;;5111803;28;20018;-33
2024/01/16 09:50:56;;;;;;;;;;;1.20;99.90;;;;;;5131292;28;19992;-32
2024/01/16 09:53:22;;;;;;;;;;;1.20;99.90;;;;;;5112378;28;19983;-34
2024/01/16 09:55:49;;;;;;;;;;;1.20;99.90;;;;;;5130790;28;19976;-33
2024/01/16 09:58:16;;;;;;;;;;;1.20;99.90;;;;;;5110628;28;19968;-33
2024/01/16 10:00:43;;;;;;;;;;;1.20;99.90;;;;;;5130810;27;20334;-34
2024/01/16 10:03:12;;;;;;;;;;;1.20;99.90;;;;;;5111123;27;19923;-32
2024/01/16 10:05:38;;;;;;;;;;;1.20;99.90;;;;;;5113681;27;19924;-33
2024/01/16 10:08:07;;;;;;;;;;;1.10;99.90;;;;;;5116018;27;19971;-33
2024/01/16 10:10:34;;;;;;;;;;;1.10;99.90;;;;;;5116762;27;19972;-33
2024/01/16 10:13:01;;;;;;;;;;;1.10;99.90;;;;;;5123957;27;19927;-32
2024/01/16 10:15:27;;;;;;;;;;;1.20;99.90;;;;;;5114928;27;20348;-34
2024/01/16 10:17:54;;;;;;;;;;;1.20;99.90;;;;;;5096367;28;19924;-33
2024/01/16 10:20:32;;;;;;;;;;;1.20;99.90;;;;;;5114446;28;19928;-33
2024/01/16 10:22:59;;;;;;;;;;;1.20;99.90;;;;;;5110868;27;19973;-33
2024/01/16 10:25:27;;;;;;;;;;;1.30;99.90;;;;;;5134450;27;20380;-32
2024/01/16 10:28:03;;;;;;;;;;;1.30;99.90;;;;;;5115489;27;20394;-34
2024/01/16 10:30:30;;;;;;;;;;;1.30;99.90;;;;;;5116033;27;19980;-33
2024/01/16 10:32:57;;;;;;;;;;;1.40;99.90;;;;;;5115375;27;19931;-33
2024/01/16 10:35:24;;;;;;;;;;;1.40;99.90;;;;;;5116106;27;19930;-34
2024/01/16 10:37:51;;;;;;;;;;;1.40;99.90;;;;;;5134738;27;19923;-35
2024/01/16 10:40:18;;;;;;;;;;;1.40;99.90;;;;;;5134862;27;19923;-35
2024/01/16 10:42:47;;;;;;;;;;;1.40;99.90;;;;;;5133946;27;19951;-33
2024/01/16 10:45:18;;;;;;;;;;;1.50;99.90;;;;;;5134394;27;19924;-32
2024/01/16 10:47:46;;;;;;;;;;;1.50;99.90;;;;;;5095955;28;19923;-33
2024/01/16 10:50:12;;;;;;;;;;;1.50;99.90;;;;;;5095914;28;19928;-33
2024/01/16 10:52:41;;;;;;;;;;;1.40;99.90;;;;;;5122857;27;19923;-34
2024/01/16 10:55:09;;;;;;;;;;;1.50;99.90;;;;;;5132781;27;19969;-34
2024/01/16 10:57:36;;;;;;;;;;;1.40;99.90;;;;;;5131893;27;20394;-33
2024/01/16 11:00:07;;;;;;;;;;;1.50;99.90;;;;;;5134051;27;19924;-34
2024/01/16 11:02:36;;;;;;;;;;;1.40;99.90;;;;;;5133968;27;19931;-34
2024/01/16 11:05:03;;;;;;;;;;;1.40;99.90;;;;;;5115627;27;20410;-34
2024/01/16 11:07:30;;;;;;;;;;;1.40;99.90;;;;;;5133786;27;19923;-33
2024/01/16 11:09:57;;;;;;;;;;;1.40;99.90;;;;;;5112405;27;19923;-35
2024/01/16 11:12:25;;;;;;;;;;;1.40;99.90;;;;;;5126867;27;20344;-33
2024/01/16 11:14:52;;;;;;;;;;;1.30;99.90;;;;;;5101773;28;19969;-32
2024/01/16 11:17:21;;;;;;;;;;;1.30;99.90;;;;;;5107275;27;20367;-33
2024/01/16 11:19:47;;;;;;;;;;;1.30;99.90;;;;;;5133819;27;19930;-34
2024/01/16 11:22:14;;;;;;;;;;;1.30;99.90;;;;;;5134197;27;19927;-33
2024/01/16 11:24:42;;;;;;;;;;;1.30;99.90;;;;;;5133430;27;19927;-34
2024/01/16 11:27:08;;;;;;;;;;;1.20;99.90;;;;;;5131539;27;19931;-33
2024/01/16 11:29:34;;;;;;;;;;;1.20;99.90;;;;;;5111781;28;20014;-33
2024/01/16 11:32:03;;;;;;;;;;;1.30;99.90;;;;;;5111507;28;19928;-32
2024/01/16 11:34:45;;;;;;;;;;;1.30;99.90;;;;;;5132249;27;20178;-32
2024/01/16 11:37:13;;;;;;;;;;;1.30;99.90;;;;;;5130539;27;19935;-33
2024/01/16 11:39:40;;;;;;;;;;;1.30;99.90;;;;;;5129897;27;19927;-32
2024/01/16 11:42:10;;;;;;;;;;;1.30;99.90;;;;;;5102966;28;20333;-33
2024/01/16 11:44:36;;;;;;;;;;;1.30;99.90;;;;;;5094587;28;20284;-34
2024/01/16 11:47:03;;;;;;;;;;;1.30;99.90;;;;;;5112425;28;20333;-33
2024/01/16 11:49:31;;;;;;;;;;;1.30;99.90;;;;;;5106044;27;19988;-33
2024/01/16 11:51:58;;;;;;;;;;;1.40;99.90;;;;;;5114959;27;19927;-33
2024/01/16 11:54:29;;;;;;;;;;;1.30;99.90;;;;;;5113813;27;19924;-33
2024/01/16 11:57:01;;;;;;;;;;;1.30;99.90;;;;;;5132200;27;19923;-33
2024/01/16 11:59:43;;;;;;;;;;;1.40;99.90;;;;;;5114675;27;19923;-33
2024/01/16 12:02:11;;;;;;;;;;;1.30;99.90;;;;;;5114700;27;19931;-33
2024/01/16 12:04:38;;;;;;;;;;;1.30;99.90;;;;;;5120064;27;19923;-33
2024/01/16 12:07:05;;;;;;;;;;;1.40;99.90;;;;;;5128248;27;20410;-33
2024/01/16 12:09:33;;;;;;;;;;;1.40;99.90;;;;;;5114110;27;20427;-33
2024/01/16 12:12:00;;;;;;;;;;;1.40;99.90;;;;;;5110399;28;20392;-33
2024/01/16 12:14:27;;;;;;;;;;;1.40;99.90;;;;;;5114527;27;19923;-33
2024/01/16 12:16:54;;;;;;;;;;;1.40;99.90;;;;;;5131640;27;20259;-33
2024/01/16 12:19:21;;;;;;;;;;;1.40;99.90;;;;;;5115006;27;19923;-34
2024/01/16 12:21:47;;;;;;;;;;;1.40;99.90;;;;;;5114637;27;19928;-35
2024/01/16 12:24:14;;;;;;;;;;;1.40;99.90;;;;;;5111551;27;19969;-34
2024/01/16 12:26:42;;;;;;;;;;;1.30;99.90;;;;;;5131654;27;19924;-34
2024/01/16 12:29:09;;;;;;;;;;;1.40;99.90;;;;;;5132737;27;19947;-34
2024/01/16 12:31:35;;;;;;;;;;;1.30;99.90;;;;;;5132508;27;20257;-34
2024/01/16 12:34:05;;;;;;;;;;;1.40;99.90;;;;;;5132333;27;20027;-33
2024/01/16 12:36:32;;;;;;;;;;;1.40;99.90;;;;;;5131250;27;19924;-33
2024/01/16 12:38:59;;;;;;;;;;;1.40;99.90;;;;;;5114245;27;19974;-34
2024/01/16 12:41:25;;;;;;;;;;;1.40;99.90;;;;;;5121967;27;20345;-33
2024/01/16 12:43:53;;;;;;;;;;;1.30;99.90;;;;;;5108675;28;19928;-34
2024/01/16 12:46:20;;;;;;;;;;;1.40;99.90;;;;;;5130076;27;19923;-34
2024/01/16 12:48:48;;;;;;;;;;;1.40;99.90;;;;;;5132379;27;20294;-33
2024/01/16 12:51:21;;;;;;;;;;;1.50;99.90;;;;;;5114408;28;20286;-32
2024/01/16 12:53:47;;;;;;;;;;;1.60;99.90;;;;;;5132065;27;19968;-32
2024/01/16 12:56:14;;;;;;;;;;;1.70;99.90;;;;;;5110135;28;19984;-33
2024/01/16 12:58:41;;;;;;;;;;;1.80;99.90;;;;;;5131422;27;20260;-33
2024/01/16 13:01:25;;;;;;;;;;;1.80;99.90;;;;;;5113544;27;19923;-33
2024/01/16 13:03:52;;;;;;;;;;;1.70;99.90;;;;;;5131820;27;19923;-33
2024/01/16 13:06:19;;;;;;;;;;;1.80;99.90;;;;;;5131948;27;19930;-33
2024/01/16 13:08:46;;;;;;;;;;;1.70;99.90;;;;;;5113678;27;19972;-33
2024/01/16 13:11:15;;;;;;;;;;;1.70;99.90;;;;;;5112784;28;20011;-33
2024/01/16 13:13:42;;;;;;;;;;;1.70;99.90;;;;;;5109536;28;19924;-33
2024/01/16 13:16:08;;;;;;;;;;;1.70;99.90;;;;;;5109907;28;20211;-33
2024/01/16 13:18:36;;;;;;;;;;;1.70;99.90;;;;;;5099691;28;19973;-33
2024/01/16 13:21:04;;;;;;;;;;;1.70;99.90;;;;;;5127225;28;19930;-34
2024/01/16 13:23:30;;;;;;;;;;;1.70;99.90;;;;;;5131682;28;20039;-34
2024/01/16 13:25:59;;;;;;;;;;;1.80;99.90;;;;;;5112746;28;19923;-33
2024/01/16 13:28:25;;;;;;;;;;;1.80;99.90;;;;;;5112862;28;19931;-33
2024/01/16 13:30:52;;;;;;;;;;;1.80;99.90;;;;;;5130890;28;19932;-34
2024/01/16 13:33:19;;;;;;;;;;;1.80;99.90;;;;;;5111645;28;19963;-33
2024/01/16 13:35:47;;;;;;;;;;;1.80;99.90;;;;;;5121386;27;19976;-33
2024/01/16 13:38:15;;;;;;;;;;;1.90;99.90;;;;;;5125262;27;20014;-33
2024/01/16 13:40:42;;;;;;;;;;;1.90;99.90;;;;;;5111753;28;20223;-34
2024/01/16 13:43:08;;;;;;;;;;;2.00;99.90;;;;;;5117017;27;19927;-35
2024/01/16 13:45:35;;;;;;;;;;;1.90;99.90;;;;;;5117185;27;20371;-34
2024/01/16 13:48:02;;;;;;;;;;;1.90;99.90;;;;;;5117838;27;20302;-32
2024/01/16 13:50:29;;;;;;;;;;;2.00;99.90;;;;;;5136819;27;20375;-33
2024/01/16 13:52:57;;;;;;;;;;;2.10;99.90;;;;;;5118578;27;19924;-31
2024/01/16 13:55:24;;;;;;;;;;;2.10;99.90;;;;;;5136083;27;19923;-32
2024/01/16 13:57:51;;;;;;;;;;;2.20;99.90;;;;;;5118735;27;20363;-33
2024/01/16 14:00:18;;;;;;;;;;;2.20;99.90;;;;;;5118423;27;19923;-33
2024/01/16 14:02:45;;;;;;;;;;;2.20;99.90;;;;;;5118021;27;19923;-32
2024/01/16 14:05:11;;;;;;;;;;;2.30;99.90;;;;;;5136900;27;20344;-33
2024/01/16 14:07:38;;;;;;;;;;;2.30;99.90;;;;;;5118644;27;19923;-32
2024/01/16 14:10:09;;;;;;;;;;;2.30;99.90;;;;;;5135738;27;20031;-33
2024/01/16 14:12:36;;;;;;;;;;;2.20;99.90;;;;;;5118225;27;19930;-34
2024/01/16 14:15:06;;;;;;;;;;;2.10;99.90;;;;;;5110978;27;19931;-32
2024/01/16 14:17:33;;;;;;;;;;;2.00;99.90;;;;;;5131220;27;19988;-34
2024/01/16 14:20:00;;;;;;;;;;;1.90;99.90;;;;;;5112514;28;19928;-33
2024/01/16 14:22:27;;;;;;;;;;;1.90;99.90;;;;;;5117272;27;19939;-32